Cumberland Gap, Tennessee
Current Conditions -  °F | °C
As of 6:15 AM on Sunday 23 Nov 2014 (Local Time) from K1A6 Reporting Station
Broken Clouds Broken Clouds  
Wind Chill: 40°   Ceiling: 5000
Heat Index: 40°   Visibility: 10mi
Dew Point: 33°   Wind: 0mph
Humidity: 75%   Direction: NA
Pressure: 30.09"   Gusts: NA
Location:  36.6°N, 83.67°W
Report Text: K1A6 231115Z AUTO 00000KT 10SM BKN050 05/01 A3009 RMK AO2 T00460006
Loading
Personal Weather Stations






























Interactive Weather Map New forecast layout! Learn more

10-Day Weather Forecast

Advertisements
Track Severe Weather on mobile